Date,TemperatureHighF,TemperatureAvgF,TemperatureLowF,DewpointHighF,DewpointAvgF,DewpointLowF,HumidityHigh,HumidityAvg,HumidityLow,PressureMaxIn,PressureMinIn,WindSpeedMaxMPH,WindSpeedAvgMPH,GustSpeedMaxMPH,PrecipitationSumIn
2013-1-1,29.3,22.5,17.4,15.8,11.5,-9.6,73,63,52,30.13,30.00,12,4,12,0.00
2013-1-2,25.5,22.0,17.4,19.3,14.1,-23.8,77,71,68,30.14,30.03,10,3,10,0.00
2013-1-3,28.7,25.1,20.1,22.2,18.2,13.0,79,75,72,30.10,29.98,13,6,13,0.00
2013-1-4,36.5,29.4,26.4,25.1,21.4,19.2,77,72,61,30.12,29.91,20,9,20,0.02
2013-1-5,35.4,28.3,19.5,28.4,22.4,-1.3,86,78,71,30.22,29.93,13,2,13,0.00
2013-1-6,34.5,33.2,30.5,31.0,28.4,23.5,87,83,75,30.22,29.83,15,3,15,0.06
2013-1-7,38.6,32.0,28.7,24.5,23.0,21.5,78,69,53,30.28,30.05,24,6,24,0.00
2013-1-8,40.8,32.1,27.6,30.3,24.0,20.7,77,72,65,30.18,30.06,14,3,14,0.00
2013-1-9,47.3,37.7,29.3,32.4,27.7,-31.2,81,68,49,30.38,29.91,31,7,31,0.00
2013-1-10,49.6,33.7,24.9,33.1,24.7,18.7,80,70,51,30.53,30.13,8,0,8,0.10
2013-1-11,50.9,43.5,35.2,48.1,39.8,29.0,90,86,78,30.13,29.69,12,2,12,0.19
2013-1-12,57.2,49.5,43.3,47.0,40.5,30.8,88,72,51,29.91,29.74,19,4,19,0.00
2013-1-13,43.3,35.5,26.4,33.8,31.3,-0.9,88,85,65,30.00,29.78,12,2,12,0.08
2013-1-14,27.5,21.9,17.9,21.1,14.6,11.8,80,73,63,30.39,30.00,16,4,16,0.00
2013-1-15,30.7,20.9,15.0,20.7,14.2,-9.2,81,75,64,30.39,30.12,10,1,10,0.02
2013-1-16,34.8,25.9,16.3,27.1,18.5,0.0,81,74,58,30.12,29.71,22,5,22,0.00
2013-1-17,32.5,25.2,16.7,26.7,16.3,6.2,80,69,58,30.29,29.90,14,3,14,0.02
2013-1-18,35.4,23.3,12.0,24.3,14.0,4.4,75,68,60,30.39,29.83,21,4,21,0.00
2013-1-19,42.4,38.5,33.9,34.7,29.3,3.8,79,69,63,29.85,29.45,17,8,17,0.00
2013-1-20,34.3,19.7,13.1,29.1,9.8,2.6,82,65,59,30.15,29.46,26,7,26,0.00
2013-1-21,14.9,11.4,3.0,7.8,1.1,-6.8,73,63,50,30.11,29.92,18,4,18,0.00
2013-1-22,9.0,4.7,-0.2,-2.3,-5.5,-10.1,65,62,55,30.23,30.06,14,3,14,0.49
2013-1-23,16.3,10.2,2.8,10.2,2.8,-5.2,77,71,63,30.24,30.04,11,3,11,0.00
2013-1-24,21.0,11.3,5.5,8.2,2.8,-0.4,79,69,54,30.58,30.11,9,1,9,0.02
2013-1-25,22.1,17.0,11.6,14.5,9.8,-34.7,79,73,67,30.46,29.97,10,2,10,0.00
2013-1-26,32.0,22.5,16.1,19.0,14.5,-3.2,80,71,56,30.39,30.00,8,1,8,0.06
2013-1-27,29.8,23.3,14.5,22.1,15.0,7.3,81,71,60,30.42,30.08,11,2,11,0.02
2013-1-28,41.1,35.2,27.1,38.4,31.6,-24.3,90,87,81,30.08,29.79,12,1,12,0.02
2013-1-29,54.3,43.9,34.3,51.7,40.8,-19.5,92,89,20,29.98,29.38,12,2,12,1.04
2013-1-30,54.6,47.1,37.9,51.7,44.4,33.8,91,90,85,29.38,29.07,12,2,12,28.31
2013-1-31,30.0,19.6,17.4,23.1,10.7,9.1,75,68,59,29.83,29.22,15,6,15,0.00
2013-2-1,18.6,16.0,12.2,11.1,7.6,-18.3,77,69,60,30.16,29.84,16,7,16,0.00
2013-2-2,19.5,14.8,9.5,12.3,7.8,2.7,79,73,65,30.12,29.96,13,3,13,0.00
2013-2-3,19.5,13.8,8.7,12.6,6.8,2.1,77,73,67,29.99,29.81,9,3,9,0.00
2013-2-4,24.0,16.1,10.9,15.6,9.6,4.8,80,75,68,29.98,29.87,8,0,8,0.00
2013-2-5,27.5,17.8,6.0,21.9,11.6,0.3,79,76,69,29.95,29.73,13,3,13,0.00
2013-2-6,32.1,22.5,11.6,19.9,14.2,6.0,80,70,59,30.24,29.94,10,1,10,0.02
2013-2-7,35.2,29.6,25.3,27.2,22.3,17.2,82,74,67,30.23,29.90,9,2,9,0.02
2013-2-8,31.8,25.3,15.6,25.1,19.3,9.4,87,78,64,30.33,29.86,18,6,18,0.16
2013-2-9,32.7,18.3,6.0,21.1,11.0,0.3,80,73,60,30.41,30.22,9,1,9,0.08
2013-2-10,39.9,26.5,10.9,34.2,19.3,5.0,85,74,60,30.23,29.60,14,1,14,0.41
2013-2-11,41.5,36.7,31.8,38.2,30.6,25.1,88,78,68,29.79,29.46,25,9,25,0.00
2013-2-12,31.8,29.5,26.2,25.1,21.7,-9.4,76,72,69,29.99,29.79,61,7,61,0.00
2013-2-13,34.8,29.8,25.8,26.4,22.7,18.4,78,75,70,29.89,29.71,12,3,12,0.00
2013-2-14,40.1,34.2,29.1,34.4,28.9,23.4,86,81,74,29.80,29.59,21,4,21,0.04
2013-2-15,29.1,25.1,21.3,23.5,16.2,13.1,80,69,58,30.10,29.80,13,4,13,0.00
2013-2-16,24.4,20.1,13.2,17.1,13.0,-13.8,79,74,66,30.07,29.97,10,1,10,0.00
2013-2-17,25.3,15.2,6.0,11.7,5.9,-0.2,77,67,53,30.17,30.07,9,1,9,0.04
2013-2-18,43.3,30.8,16.3,34.5,19.4,4.2,73,62,53,30.15,29.49,16,4,16,0.00
2013-2-19,44.2,30.0,18.3,37.5,23.5,12.0,86,77,70,29.86,29.31,22,9,22,0.53
2013-2-20,23.1,19.2,15.8,13.0,10.1,6.9,79,67,59,30.21,29.85,18,6,18,0.00
2013-2-21,24.4,19.9,-1.4,17.0,11.6,-8.2,80,70,60,30.38,30.20,11,4,11,0.00
2013-2-22,31.6,26.4,20.8,27.9,21.3,15.2,86,81,75,30.26,29.82,16,2,16,0.00
2013-2-23,32.7,29.7,25.5,28.9,24.0,20.2,87,79,70,29.87,29.81,16,6,16,0.00
2013-2-24,41.7,30.5,23.5,28.9,22.8,-23.4,86,74,6,30.11,29.84,10,2,10,0.18
2013-2-25,44.4,33.9,27.8,28.4,23.4,19.3,75,66,51,30.20,30.10,8,1,8,0.00
2013-2-26,35.7,30.5,24.0,29.4,24.2,17.4,89,77,70,30.13,29.56,18,4,18,0.00
2013-2-27,34.8,33.2,10.5,31.9,30.3,7.9,90,89,88,29.57,29.49,8,1,8,0.94
2013-2-28,35.4,32.6,28.9,30.9,28.1,22.0,90,83,75,29.98,29.55,13,4,13,0.28
2013-3-1,29.8,26.4,1.9,22.4,19.1,-3.4,78,73,68,30.12,29.97,16,6,16,0.00
2013-3-2,28.2,23.8,21.3,18.5,16.1,13.2,78,72,65,30.09,30.05,57,4,57,0.00
2013-3-3,31.2,22.0,14.1,18.7,13.6,7.4,79,70,53,30.05,29.97,12,3,12,0.04
2013-3-4,41.7,24.0,12.9,24.5,14.4,7.3,80,68,49,30.12,30.04,9,1,9,0.06
2013-3-5,34.1,25.3,16.3,24.7,18.1,9.5,81,74,67,30.12,29.89,14,4,14,4.48
2013-3-6,41.0,32.2,25.3,31.4,25.7,20.2,83,77,67,30.19,29.91,13,3,13,4.48
2013-3-7,39.0,32.4,25.5,27.6,23.3,-24.5,86,70,6,30.38,30.18,11,2,11,0.02
2013-3-8,48.9,31.5,19.2,30.4,20.6,12.6,77,65,48,30.47,30.37,9,1,9,0.00
2013-3-9,48.2,35.9,25.3,31.7,25.7,18.9,79,67,51,30.37,30.00,9,1,9,4.50
2013-3-10,53.4,45.3,36.1,40.7,35.7,28.4,77,69,61,30.00,29.74,9,1,9,0.02
2013-3-11,52.1,47.3,37.0,46.4,41.0,31.6,88,79,67,29.76,29.43,16,3,16,0.35
2013-3-12,37.2,33.8,29.8,31.7,26.8,-19.5,85,76,60,29.86,29.59,19,7,19,0.00
2013-3-13,37.0,28.6,23.7,23.8,17.9,1.5,78,65,43,30.15,29.83,19,5,19,0.02
2013-3-14,42.4,30.5,22.2,22.0,17.2,-1.9,71,58,43,30.22,30.01,12,3,61,0.00
2013-3-15,39.0,35.0,31.1,31.2,26.7,18.5,76,72,59,30.02,29.83,12,5,12,4.89
2013-3-16,32.1,27.8,23.9,24.8,21.8,19.2,83,78,72,30.01,29.79,12,4,12,0.02
2013-3-17,33.9,24.6,20.3,21.1,14.6,-27.1,80,66,53,30.29,30.01,16,4,16,0.06
2013-3-18,34.3,28.0,19.4,29.2,21.1,11.0,86,75,65,30.20,29.53,12,2,12,0.00
2013-3-19,33.2,25.4,21.7,29.3,19.0,15.3,86,76,69,29.86,29.53,31,9,31,0.00
2013-3-20,28.9,22.9,18.3,15.7,12.5,-33.6,71,64,6,29.90,29.84,19,6,19,0.00
2013-3-21,31.8,25.3,17.2,22.1,17.1,-4.9,80,71,20,29.90,29.80,14,5,14,0.02
2013-3-22,41.1,30.0,24.8,25.1,19.4,15.9,69,65,52,30.00,29.89,14,4,14,5.07
2013-3-23,40.8,32.4,27.6,26.8,22.4,19.1,72,67,56,30.10,30.00,11,2,11,5.07
2013-3-24,39.7,30.1,23.0,28.1,21.9,16.6,80,71,58,30.05,29.70,19,4,19,5.07
2013-3-25,43.8,35.8,30.7,31.1,26.6,23.1,77,69,58,29.92,29.65,19,8,19,5.07
2013-3-26,35.7,34.2,32.9,25.7,25.2,24.6,73,69,65,29.94,29.91,11,4,11,0.00
2013-3-27,47.8,40.9,30.9,29.0,26.3,23.3,73,57,44,30.17,30.10,12,4,12,0.00
2013-3-28,54.6,41.3,31.8,29.2,24.7,-10.2,70,54,37,30.24,30.17,12,2,12,5.12
2013-3-29,55.2,40.9,29.8,28.7,22.2,-13.1,65,50,34,30.26,30.16,13,2,13,0.00
2013-3-30,56.4,41.9,26.9,29.4,23.9,-8.3,73,52,30,30.19,29.86,15,2,15,0.00
2013-3-31,55.7,45.9,34.8,39.3,33.5,-9.9,77,63,46,29.86,29.59,22,5,22,0.00
2013-4-1,34.8,30.3,26.6,27.7,14.9,-10.6,76,54,41,30.06,29.69,22,6,22,0.00
2013-4-2,41.0,30.6,21.7,17.7,13.8,-10.6,74,52,33,30.21,30.05,18,4,18,0.00
2013-4-3,50.0,32.5,21.0,22.0,14.0,-14.2,63,48,33,30.41,30.20,13,2,13,5.12
2013-4-4,58.2,42.3,28.7,26.5,20.6,-4.1,58,43,29,30.30,29.89,18,5,18,5.12
2013-4-5,54.6,41.8,31.8,28.0,23.0,19.3,69,48,32,30.19,29.93,10,2,10,5.12
2013-4-6,54.3,40.0,31.2,28.1,21.5,-33.9,61,49,34,30.20,29.66,17,3,17,0.00
2013-4-7,55.9,47.0,38.3,46.0,33.6,-17.6,76,62,40,30.02,29.51,28,6,28,0.00
2013-4-8,48.3,40.5,32.5,44.3,33.8,-8.3,88,78,64,30.02,29.65,11,0,11,0.75
2013-4-9,44.9,41.0,37.4,41.5,37.6,-2.9,90,88,85,30.08,29.88,17,2,17,2.35
2013-4-10,38.1,37.2,36.1,35.2,33.9,-2.5,90,88,82,30.05,29.87,22,6,22,0.41
2013-4-11,37.0,34.5,33.0,31.7,30.7,-4.4,89,86,79,30.02,29.69,17,6,17,0.80
2013-4-12,42.4,36.7,32.5,36.5,32.4,-2.5,90,85,71,29.71,29.54,15,4,15,0.53
2013-4-13,41.1,37.2,35.2,34.7,29.8,-20.8,86,76,60,29.95,29.71,24,6,24,0.14
2013-4-14,52.3,39.3,30.0,36.7,29.6,-6.6,82,69,55,30.09,29.89,10,1,10,0.00
2013-4-15,70.7,53.4,36.8,54.5,43.4,-6.3,84,71,56,29.89,29.79,19,3,19,0.18
2013-4-16,61.3,50.8,42.9,50.3,39.2,-3.4,89,68,41,30.25,29.85,15,3,15,0.53
2013-4-17,53.4,43.1,37.5,40.7,34.8,-7.4,87,73,61,30.35,30.02,14,3,14,0.55
2013-4-18,70.8,54.3,41.7,63.3,49.7,-2.9,90,86,73,30.02,29.42,20,3,20,1.75
2013-4-19,60.4,43.1,34.3,55.9,36.2,-3.2,90,78,60,29.68,29.31,33,9,33,0.59
2013-4-20,39.3,33.4,27.6,29.0,20.5,-8.6,79,60,48,30.42,29.67,15,5,15,0.00
2013-4-21,58.2,38.6,23.5,32.9,23.2,-9.6,74,56,37,30.59,30.41,14,2,14,0.00
2013-4-22,70.3,49.3,32.7,37.5,29.6,-26.3,72,49,29,30.43,30.15,10,2,10,0.00
2013-4-23,63.5,53.2,41.7,49.9,40.2,-13.8,86,63,47,30.16,29.78,14,3,14,0.45
2013-4-24,50.3,39.1,33.0,37.5,29.5,-9.9,88,73,46,30.06,29.81,58,4,58,0.49
2013-4-25,52.3,41.9,36.5,38.0,29.3,-9.9,83,63,40,30.29,30.01,22,5,22,0.04
2013-4-26,64.2,47.7,31.6,38.9,31.6,-9.3,77,56,38,30.40,30.25,18,4,18,0.00
2013-4-27,76.8,59.0,14.5,46.6,38.7,-11.3,67,50,29,30.28,30.08,13,2,13,0.00
2013-4-28,67.8,56.7,48.5,52.0,42.5,-15.4,80,61,46,30.08,29.83,13,0,13,0.00
2013-4-29,74.8,61.9,53.2,56.0,50.8,-3.4,88,71,50,29.91,29.82,8,1,8,0.02
2013-4-30,78.0,63.9,56.4,59.0,53.9,30.8,86,71,51,30.00,29.87,19,2,19,0.19
2013-5-1,88.5,72.9,60.4,61.6,53.4,-31.5,73,56,20,30.19,30.00,12,2,12,0.00
2013-5-2,85.8,71.9,60.0,57.3,41.8,-10.2,66,51,37,30.22,30.08,14,1,14,0.00
2013-5-3,85.1,70.5,59.5,57.8,47.2,-13.1,54,44,25,30.12,30.03,12,1,12,0.00
2013-5-4,82.2,69.1,58.8,51.2,43.4,-16.3,53,41,24,30.11,30.03,9,1,9,0.00
2013-5-5,82.2,66.7,55.2,48.4,41.0,-15.0,54,41,25,30.10,30.01,9,1,9,0.00
2013-5-6,84.0,65.4,-14.4,46.1,42.0,-24.6,65,45,24,30.07,29.96,11,2,11,0.00
2013-5-7,80.7,66.2,51.9,53.5,45.9,37.3,59,48,38,30.07,29.98,14,2,14,0.00
2013-5-8,87.9,68.4,54.6,52.4,45.6,-12.0,66,46,25,30.03,29.92,9,2,9,0.00
2013-5-9,84.9,69.2,56.3,54.9,49.0,-12.0,68,51,32,29.96,29.85,9,1,9,0.00
2013-5-10,66.3,49.3,41.5,50.2,41.9,-10.9,86,78,55,29.90,29.82,14,4,14,0.00
2013-5-11,59.9,45.7,38.8,47.2,38.6,-3.2,86,78,61,29.88,29.67,17,4,17,0.00
2013-5-12,45.5,39.7,34.7,32.6,28.4,-4.9,79,65,52,30.07,29.81,19,6,19,0.00
2013-5-13,60.0,43.3,31.6,31.5,26.6,22.8,71,53,33,30.15,30.06,12,3,12,0.00
2013-5-14,69.9,55.4,45.5,48.5,38.0,-14.6,62,52,44,30.06,29.68,12,1,12,0.00
2013-5-15,80.7,67.8,53.4,55.7,47.9,-7.7,76,52,28,29.79,29.51,13,3,13,0.00
2013-5-16,82.0,65.1,52.5,50.8,44.0,-13.4,67,48,30,30.05,29.77,12,2,12,0.12
2013-5-17,65.6,55.9,46.0,46.0,40.4,-12.0,69,58,48,30.16,30.05,9,2,9,0.00
2013-5-18,87.0,64.9,53.7,56.1,47.1,-9.0,70,55,34,30.16,30.01,9,1,9,0.00
2013-5-19,92.3,71.0,53.2,63.6,52.8,42.7,71,54,37,30.04,29.84,8,1,8,0.00
2013-5-20,90.3,73.7,65.6,69.4,61.6,-8.6,85,69,43,29.90,29.71,16,2,16,0.37
2013-5-21,85.1,71.8,64.9,68.0,62.4,-3.4,87,73,55,29.79,29.69,13,2,13,0.00
2013-5-22,71.4,67.6,21.5,65.8,60.6,-6.6,87,81,72,29.72,29.60,11,1,11,0.74
2013-5-23,64.4,52.1,44.9,59.5,47.3,-4.2,88,84,79,30.15,29.63,15,2,15,0.24
2013-5-24,67.6,47.1,37.5,47.0,36.8,-4.9,83,68,46,30.36,30.15,13,3,13,0.00
2013-5-25,70.3,51.3,37.2,44.0,37.2,-7.2,82,61,36,30.40,30.28,10,1,10,0.00
2013-5-26,69.9,54.2,39.0,43.8,37.5,-10.2,78,56,38,30.35,30.22,10,1,10,0.00
2013-5-27,71.7,57.0,43.3,45.4,39.6,-8.6,71,54,32,30.25,30.00,16,1,16,0.00
2013-5-28,75.5,60.1,30.2,68.0,54.7,-5.5,90,84,69,30.01,29.76,9,1,9,0.81
2013-5-29,79.1,69.3,63.5,67.6,63.3,-2.2,91,83,67,29.96,29.71,14,3,14,0.51
2013-5-30,89.2,74.7,65.6,71.5,64.9,-3.7,87,74,55,30.00,29.91,15,2,15,0.14
2013-5-31,80.9,74.4,69.9,67.0,64.7,-4.7,86,73,59,29.95,29.81,16,4,16,0.00
2013-6-1,79.5,72.5,66.2,64.8,61.9,-4.9,86,72,56,29.82,29.65,17,4,17,0.00
2013-6-2,69.8,60.5,47.4,61.5,51.5,-6.0,84,73,62,30.01,29.60,58,4,58,0.00
2013-6-3,73.2,54.6,40.8,47.3,39.3,-6.6,82,60,37,30.07,29.97,12,2,12,0.00
2013-6-4,73.7,58.9,46.2,47.9,41.4,-9.6,75,55,32,30.19,30.07,9,1,9,0.02
2013-6-5,71.7,60.9,53.2,50.7,43.8,-12.7,76,54,36,30.20,30.02,9,1,9,0.04
2013-6-6,63.3,58.7,55.0,50.8,47.8,-7.4,76,68,58,30.03,29.91,11,2,11,0.02
2013-6-7,74.1,59.0,52.7,55.7,49.4,-6.6,81,71,51,29.94,29.88,10,2,10,0.04
2013-6-8,75.9,61.8,50.1,56.0,50.9,-4.9,84,69,49,30.06,29.91,8,0,8,0.04
2013-6-9,78.9,66.7,53.4,60.8,54.3,-4.9,82,66,48,30.10,29.94,8,0,8,0.02
2013-6-10,68.5,64.1,59.9,64.8,56.8,-10.2,89,81,59,29.95,29.75,8,0,8,0.24
2013-6-11,81.1,70.2,61.3,66.2,61.8,58.0,92,76,57,29.87,29.78,10,2,10,0.04
2013-6-12,78.0,69.2,61.7,66.8,60.6,-3.9,88,77,62,29.91,29.67,9,0,9,0.06
2013-6-13,77.5,67.7,60.9,61.3,58.4,-2.9,90,74,53,29.94,29.65,14,1,14,0.20
2013-6-14,84.3,65.8,55.2,59.0,51.9,-4.9,84,65,40,30.10,29.94,9,1,9,0.04
2013-6-15,76.6,66.2,54.5,60.8,54.2,-7.4,82,67,52,30.06,29.87,13,2,13,0.00
2013-6-16,84.9,71.6,63.5,65.0,59.9,-6.0,90,70,20,29.87,29.72,19,1,19,0.33
2013-6-17,79.8,67.4,57.0,64.7,57.4,-7.7,84,71,52,29.95,29.82,7,0,7,1.10
2013-6-18,57.3,56.3,55.5,52.2,50.1,-3.9,83,82,81,29.98,29.93,58,0,58,0.00
2013-6-29,78.9,67.6,62.4,62.2,59.5,55.8,90,76,54,29.76,29.57,9,1,9,0.33
2013-6-30,78.6,67.9,60.4,64.0,55.8,-5.5,86,68,36,29.98,29.76,10,1,10,0.00
2013-7-1,72.3,63.4,55.5,59.8,52.2,-7.7,80,68,20,30.11,29.97,14,2,14,0.00
2013-7-2,73.5,66.5,61.3,59.2,54.1,-9.6,79,65,50,30.10,30.05,9,1,9,0.00
2013-7-3,84.0,68.7,59.9,67.5,59.4,-6.6,84,73,56,30.10,30.01,10,0,10,0.16
2013-7-4,79.3,71.6,64.7,65.4,61.5,-3.4,87,73,54,30.11,30.05,10,1,10,0.00
2013-7-5,87.9,75.0,66.0,67.2,61.7,-6.0,81,66,20,30.10,30.01,9,1,9,0.00
2013-7-6,89.4,77.8,68.9,68.7,64.4,-6.0,85,68,50,30.08,29.96,11,1,14,0.00
2013-7-7,81.6,74.6,69.8,71.2,67.1,-17.5,89,80,67,30.00,29.92,8,0,8,0.08
2013-7-8,80.0,74.1,31.8,72.3,68.0,-3.7,87,82,69,29.99,29.94,10,0,10,0.04
2013-7-9,87.9,75.8,69.6,72.3,67.4,-2.7,90,79,59,29.97,29.82,11,0,11,0.00
2013-7-10,86.5,77.0,68.5,71.4,65.2,-2.2,91,71,41,29.95,29.75,14,2,14,0.00
2013-7-11,92.1,70.4,60.4,64.9,56.4,-8.6,78,63,20,30.08,29.94,10,0,10,0.00
2013-7-12,92.4,69.9,56.4,67.6,57.1,-1.0,78,65,43,30.18,30.08,6,0,6,0.00
2013-7-13,99.1,75.3,62.4,69.1,58.7,-19.6,78,61,35,30.21,30.14,7,0,7,0.02
2013-7-14,102.9,78.8,29.1,75.9,65.2,-4.9,81,65,41,30.25,30.20,22,2,22,0.00
2013-7-15,105.9,83.7,15.8,78.4,66.3,-17.6,83,66,42,30.28,30.20,26,5,26,0.10
2013-7-16,99.5,84.6,75.0,76.2,72.3,-5.5,85,68,46,30.28,30.20,25,4,25,0.00
2013-7-17,99.3,85.0,74.1,76.2,72.2,-5.2,84,67,47,30.25,30.12,26,3,26,0.02
2013-7-18,99.3,85.2,74.4,76.2,71.2,-6.6,83,65,46,30.14,29.89,26,3,26,0.00
2013-7-19,95.3,85.2,78.4,73.2,70.8,-34.7,79,64,46,29.90,29.67,20,5,20,0.06
2013-7-20,89.2,75.8,-21.1,67.3,60.7,-29.1,78,63,41,29.95,29.71,15,1,15,0.00
2013-7-21,93.7,72.0,60.9,64.7,54.1,-9.6,68,57,38,30.02,29.92,7,0,7,0.00
2013-7-22,84.9,75.2,66.9,67.3,60.8,-8.3,72,63,51,29.95,29.73,12,2,12,0.04
2013-7-23,76.1,71.2,61.7,67.9,59.0,-6.3,84,68,48,29.91,29.66,14,1,14,0.00
2013-7-24,79.8,63.4,52.1,54.6,47.5,-10.6,76,60,40,30.05,29.91,9,1,9,0.08
2013-7-25,82.5,66.4,54.3,55.3,50.9,-9.0,77,59,38,30.11,30.03,11,1,11,0.00
2013-7-26,77.9,69.2,62.6,60.9,56.8,-7.7,80,65,54,30.06,29.88,11,1,11,0.06
2013-7-27,76.1,66.9,57.3,62.2,57.1,-4.4,84,76,57,29.88,29.72,11,0,11,0.10
2013-7-28,69.6,58.9,51.6,54.5,50.3,-6.6,83,74,57,29.94,29.80,11,1,11,0.00
2013-7-29,75.3,62.5,56.1,57.7,53.3,-3.7,88,75,53,30.16,29.92,12,0,12,0.06
2013-7-30,80.2,66.5,54.8,59.3,54.4,-5.3,81,66,48,30.22,30.10,8,0,8,0.00
2013-7-31,67.1,65.5,63.6,62.2,59.5,-7.2,90,82,69,30.10,29.88,0,0,0,0.78
2013-8-1,80.7,69.0,60.9,63.0,56.8,-2.5,91,71,45,29.91,29.85,11,0,11,0.02
2013-8-2,76.8,67.5,58.8,63.1,56.3,-7.7,80,70,60,29.90,29.79,15,3,15,0.02
2013-8-3,80.7,67.5,58.6,58.3,53.0,-6.6,81,64,45,30.06,29.89,13,1,13,0.00
2013-8-4,75.9,64.2,55.2,57.9,52.0,-8.0,81,67,52,30.17,30.05,8,0,8,0.00
2013-8-5,70.3,64.4,59.0,55.8,52.2,-9.3,73,66,58,30.10,29.94,9,0,9,0.00
2013-8-6,79.7,70.0,64.0,67.4,61.0,-7.4,82,74,66,29.95,29.85,10,1,10,0.00
2013-8-7,82.4,72.6,64.0,70.8,64.6,-3.9,88,77,64,29.93,29.77,12,1,12,0.45
2013-8-8,80.7,68.8,61.7,62.3,55.7,-5.8,80,66,46,30.03,29.92,8,1,8,0.00
2013-8-9,80.7,69.3,57.3,60.5,54.9,-8.3,81,62,48,30.00,29.90,14,2,14,0.06
2013-8-10,80.4,68.3,58.8,56.9,52.6,-9.6,71,58,42,30.14,30.00,9,1,9,0.00
2013-8-11,75.0,67.5,60.4,56.9,53.8,-7.2,76,64,49,30.11,30.02,6,0,6,0.00
2013-8-12,77.7,70.3,65.4,65.4,60.8,-18.6,79,72,65,30.05,29.82,13,1,13,0.04
2013-8-13,68.9,61.2,54.8,59.5,47.4,-6.3,77,62,20,30.07,29.85,14,2,14,0.00
2013-8-14,74.4,60.3,48.0,51.4,47.3,42.2,84,64,43,30.15,30.06,12,1,12,0.06
2013-8-15,79.1,62.7,49.8,56.5,49.8,43.8,81,64,40,30.15,30.04,12,1,12,0.00
2013-8-16,85.8,67.0,52.8,59.5,52.4,20.7,81,61,39,30.19,30.08,9,0,9,0.04
2013-8-17,87.0,69.6,-13.0,59.7,53.8,-23.9,80,59,36,30.25,30.17,9,0,9,0.00
2013-8-18,85.2,70.5,57.9,60.2,54.8,50.0,78,59,39,30.22,30.09,8,0,8,0.00
2013-8-19,84.7,70.9,58.6,59.8,56.3,-6.9,80,61,42,30.10,29.99,12,1,12,0.04
2013-8-20,86.7,74.1,62.2,65.6,60.6,55.4,79,64,46,30.10,30.02,11,2,11,0.00
2013-8-21,88.3,77.4,67.6,68.2,64.1,60.5,80,65,47,30.09,29.93,17,2,17,0.04
2013-8-22,80.9,74.6,66.7,68.1,64.6,-8.0,85,73,63,30.06,29.90,6,0,6,0.17
2013-8-23,83.6,69.2,58.4,62.3,56.9,49.8,77,66,47,30.20,30.06,0,0,0,0.06
2013-8-24,87.8,70.2,56.4,61.2,55.5,-7.4,80,62,39,30.30,30.19,58,0,58,0.00
2013-8-25,88.5,75.2,63.6,68.3,61.7,-6.3,78,64,50,30.26,30.07,16,2,16,0.00
2013-8-26,86.5,74.7,71.2,72.9,63.8,-8.0,76,71,61,30.10,29.94,9,2,9,28.55
2013-8-27,75.7,74.2,72.3,71.7,70.1,67.6,91,87,76,29.96,29.80,0,0,0,0.69
2013-8-28,85.8,74.4,70.3,71.2,68.0,-2.0,92,83,60,30.01,29.79,9,0,9,0.08
2013-8-29,92.8,76.1,68.1,70.1,66.3,63.4,89,74,45,30.10,29.98,20,0,20,0.00
2013-8-30,86.5,76.1,69.9,72.3,67.7,-4.2,87,76,59,29.98,29.71,16,2,16,0.35
2013-8-31,82.5,71.8,67.1,68.1,64.1,25.1,87,77,20,29.86,29.77,0,0,0,0.00
2013-9-1,78.9,69.1,-13.1,68.8,61.6,-18.2,84,79,70,29.86,29.71,0,0,0,0.00
2013-9-2,71.6,65.0,58.2,66.2,56.7,50.0,87,75,62,29.92,29.72,12,1,12,0.10
2013-9-3,78.4,64.7,29.1,55.1,50.8,-6.3,79,64,43,30.00,29.90,10,1,10,0.02
2013-9-4,80.2,66.8,56.4,65.8,56.9,-4.9,86,72,56,30.10,29.96,14,2,14,0.02
2013-9-5,75.9,60.7,50.9,54.7,48.3,-6.3,77,64,46,30.26,30.10,13,0,13,0.00
2013-9-6,76.6,62.4,49.8,56.2,49.7,-7.2,80,64,20,30.26,30.02,11,1,11,0.04
2013-9-7,75.0,67.7,61.8,68.2,59.5,-8.3,88,76,66,30.03,29.87,11,1,11,0.02
2013-9-8,71.2,67.2,58.8,66.2,56.7,47.9,88,70,56,30.11,29.93,14,1,14,0.00
2013-9-9,82.0,66.2,53.7,70.0,57.6,-5.5,82,75,67,30.07,29.84,10,0,10,0.04
2013-9-10,93.9,82.0,71.7,71.7,68.1,63.4,85,65,42,29.96,29.82,15,4,15,0.00
2013-9-11,86.3,77.3,69.6,69.6,64.1,-8.0,80,66,51,29.99,29.91,14,2,14,0.04
2013-9-12,75.3,67.3,58.8,62.2,53.9,-4.9,87,67,20,29.98,29.86,14,1,14,0.00
2013-9-13,67.2,55.1,48.3,45.7,41.6,-11.6,75,61,45,30.12,29.97,13,1,13,0.08
2013-9-14,70.8,54.2,40.1,44.4,39.9,-5.8,81,61,37,30.18,30.04,11,1,11,0.24
2013-9-15,60.0,55.8,52.3,52.5,47.2,-8.3,90,75,65,30.11,30.01,8,0,8,0.10
2013-9-16,63.8,53.7,46.2,52.3,44.9,-3.2,90,75,52,30.38,30.11,10,1,10,0.06
2013-9-17,74.8,53.2,37.9,53.2,42.0,-3.9,86,68,45,30.40,30.20,7,0,7,0.00
2013-9-18,82.0,61.5,44.4,57.6,47.7,-7.7,85,65,41,30.20,29.99,11,1,11,0.00
2013-9-19,81.3,68.8,60.9,67.4,60.6,-4.4,87,76,61,30.01,29.85,9,1,9,0.04
2013-9-20,76.2,70.6,66.3,68.9,63.4,-4.7,89,81,70,29.85,29.69,17,2,17,0.00
2013-9-21,66.3,60.4,52.3,61.7,51.7,-4.4,86,73,53,29.88,29.66,11,1,11,0.00
2013-9-22,60.6,51.5,44.4,43.9,40.2,-7.2,82,67,52,30.09,29.88,9,0,9,0.00
2013-9-23,69.6,54.8,47.4,48.0,42.3,-7.4,77,64,45,30.18,30.08,8,0,8,0.00
2013-9-24,71.7,53.6,41.0,52.6,43.6,-19.0,85,71,50,30.15,30.00,7,0,7,0.00
2013-9-25,69.4,55.1,42.9,53.2,46.4,38.1,89,74,52,30.02,29.96,8,1,8,0.00
2013-9-26,78.9,58.6,45.6,56.8,49.3,-3.7,90,74,45,30.13,30.00,7,0,7,0.00
2013-9-27,81.6,60.7,45.6,58.2,49.5,-4.7,87,70,44,30.23,30.13,7,0,7,0.00
2013-9-28,79.8,64.4,50.7,57.9,52.0,-6.0,89,67,43,30.18,29.96,10,0,10,0.00
2013-9-29,75.3,62.9,53.7,58.8,54.2,-7.4,89,75,54,29.99,29.89,9,1,9,0.39
2013-9-30,73.0,57.5,48.0,55.0,48.9,-3.7,90,76,49,30.01,29.89,0,0,0,0.00
2013-10-1,75.9,63.2,52.3,62.2,55.3,-4.7,87,77,59,29.95,29.85,16,2,16,0.00
2013-10-2,82.4,64.9,54.6,58.8,49.6,-3.4,88,63,29,30.08,29.88,2,0,2,0.00
2013-10-3,81.1,65.5,51.4,65.2,54.9,-5.8,80,69,57,30.05,29.87,0,0,0,0.00
2013-10-4,73.5,67.0,61.5,65.9,61.2,-3.2,90,85,74,30.07,29.88,10,0,10,0.19
2013-10-5,71.7,65.4,60.4,65.6,61.2,-2.5,92,87,80,30.05,29.81,2,0,2,0.19
2013-10-6,70.8,64.3,53.7,65.3,60.6,-2.0,91,88,76,29.81,29.65,9,0,9,0.57
2013-10-7,63.3,52.9,47.4,51.1,46.0,-2.7,91,78,51,30.07,29.65,13,1,13,0.02
2013-10-8,73.7,55.1,43.5,50.0,44.0,-3.9,89,69,42,30.26,30.06,13,1,13,0.00
2013-10-9,77.9,57.7,44.2,52.3,44.9,39.3,86,64,39,30.31,30.19,11,0,11,0.00
2013-10-10,77.0,56.0,42.6,54.7,45.6,-7.4,86,70,44,30.23,30.11,7,0,7,0.00
2013-10-11,74.1,55.4,41.7,55.9,45.5,-4.2,86,72,40,30.15,30.06,9,0,9,0.00
2013-10-12,78.0,61.3,45.3,59.6,49.2,-6.9,88,68,45,30.09,29.98,11,0,11,0.00
2013-10-13,66.0,58.1,49.1,57.0,45.8,-5.5,79,65,48,30.34,30.05,58,1,58,0.00
2013-10-14,64.5,50.5,42.9,47.7,40.7,-4.9,84,71,51,30.41,30.26,9,1,9,0.00
2013-10-15,65.4,52.3,39.0,57.0,45.8,-4.4,90,79,66,30.26,29.76,11,1,11,0.08
2013-10-16,59.9,54.4,50.5,57.0,48.7,-2.0,91,82,72,29.86,29.75,13,2,13,0.00
2013-10-17,52.5,50.0,44.2,48.2,45.8,-4.2,90,86,79,29.87,29.70,3,0,3,0.45
2013-10-18,61.5,48.8,40.8,46.3,40.3,-2.5,91,77,46,29.86,29.77,0,0,0,0.00
2013-10-19,53.2,46.4,39.9,41.4,38.1,-3.9,84,74,47,29.85,29.68,0,0,0,0.00
2013-10-20,56.1,46.7,39.3,42.8,37.8,-3.4,88,72,51,29.87,29.72,0,0,0,0.00
2013-10-21,56.1,49.9,41.1,47.0,40.1,-7.7,86,70,58,29.81,29.73,17,1,17,0.00
2013-10-22,47.3,40.3,32.7,34.2,28.8,-8.3,78,64,52,29.86,29.80,13,1,13,0.00
2013-10-23,46.5,39.1,34.7,33.8,29.5,-4.4,83,69,44,29.89,29.81,9,0,9,0.00
2013-10-24,46.7,37.5,30.9,33.1,29.4,-5.5,85,73,54,30.13,29.88,12,0,12,0.00
2013-10-25,47.1,38.7,30.0,34.0,27.8,-6.0,86,67,43,30.27,29.97,15,2,15,0.00
2013-10-26,50.3,43.4,37.2,39.9,32.6,-12.3,82,67,54,29.97,29.68,20,3,20,0.12
2013-10-27,52.3,42.0,34.3,33.9,31.0,-4.7,81,66,48,30.01,29.91,12,1,12,0.00
2013-10-28,44.9,41.5,38.4,35.4,31.2,2.3,75,67,61,30.41,29.99,12,1,12,0.00
2013-10-29,44.6,39.7,34.3,35.9,30.8,-9.3,83,71,62,30.43,30.21,2,0,2,0.04
2013-10-30,61.5,45.0,31.6,48.4,37.6,-4.2,87,77,61,30.21,29.89,7,0,7,0.00
2013-10-31,60.6,58.0,52.8,58.0,54.6,-2.2,92,90,77,29.89,29.05,12,0,12,0.71
2013-11-1,60.2,48.7,45.1,57.3,44.5,41.3,91,85,78,29.62,29.03,23,4,23,0.27
2013-11-2,46.0,42.0,38.1,43.2,37.8,-2.5,90,86,79,30.10,29.62,12,1,12,0.14
2013-11-3,44.4,37.9,30.2,35.7,30.3,-5.2,86,75,66,30.42,30.10,58,0,58,0.00
2013-11-4,50.5,40.8,33.2,33.2,28.9,-6.6,80,64,44,30.43,30.22,15,1,15,0.00
2013-11-5,57.5,51.0,44.6,45.8,41.8,-8.0,77,71,64,30.29,30.08,9,2,9,0.00
2013-11-6,55.2,50.9,40.2,52.3,44.9,-6.6,90,82,67,30.08,29.67,18,4,18,0.31
2013-11-7,41.7,38.2,35.9,34.5,29.2,25.1,82,70,56,30.10,29.96,15,2,15,0.00
2013-11-8,44.6,37.1,29.8,30.0,25.9,-8.6,80,65,50,30.23,30.07,10,1,10,0.00
2013-11-9,51.2,45.1,37.4,40.0,33.2,-17.0,71,64,55,30.11,29.72,21,5,21,0.00
2013-11-10,47.4,41.7,34.7,33.0,29.5,-25.7,73,62,50,30.21,29.84,17,3,17,0.00
2013-11-11,41.5,34.9,26.2,35.3,27.2,-6.3,84,74,63,30.31,29.99,15,1,15,0.16
2013-11-12,33.6,26.6,21.5,20.7,15.7,-8.6,78,64,49,30.51,30.31,7,0,7,0.00
2013-11-13,43.7,32.4,21.0,23.6,18.0,-7.2,79,57,38,30.48,30.04,17,2,17,0.00
2013-11-14,49.2,39.1,32.5,28.5,24.3,-9.6,65,56,44,30.05,29.88,16,0,16,0.00
2013-11-15,48.9,43.5,39.7,33.1,27.8,-13.4,62,54,48,30.00,29.91,0,0,0,0.00
2013-11-16,55.9,46.7,36.6,49.7,38.1,-9.3,85,73,62,30.04,29.71,13,0,13,0.06
2013-11-17,61.7,55.5,42.2,57.0,51.2,-2.5,90,86,79,29.72,29.11,23,1,23,0.90
2013-11-18,44.6,38.5,34.7,40.5,28.7,-7.4,86,68,60,30.09,29.35,17,0,17,0.02
2013-11-19,46.7,34.9,29.4,27.9,22.2,-10.2,71,61,47,30.38,30.09,57,0,57,0.00
2013-11-20,50.1,35.5,26.7,32.0,24.9,-7.2,79,67,46,30.40,30.19,0,0,0,0.00
2013-11-21,49.6,43.7,38.3,41.1,36.1,-5.5,88,75,64,30.24,30.14,0,0,0,0.08
2013-11-22,44.4,37.4,26.6,41.5,31.8,-2.5,90,81,66,30.34,30.10,2,0,2,0.06
2013-11-23,28.0,22.8,16.5,21.5,13.1,-6.6,82,67,44,30.47,30.21,7,0,7,0.00
2013-11-24,23.9,18.8,0.3,12.6,8.9,-12.0,76,65,51,30.54,30.30,0,0,0,0.00
2013-11-25,31.4,25.7,20.3,25.7,13.6,-8.6,87,61,43,30.31,29.95,19,2,19,0.00
2013-11-26,32.3,30.6,27.3,27.8,26.1,-2.9,87,83,76,30.02,29.90,0,0,0,0.00
2013-11-27,27.3,21.9,17.2,20.9,11.9,-7.7,78,66,49,30.15,29.94,54,1,54,0.00
2013-11-28,25.5,21.6,17.2,20.3,15.6,9.4,83,77,66,30.39,30.15,0,0,0,0.00
2013-11-29,31.6,20.9,12.7,24.3,16.0,-4.2,85,81,72,30.62,30.39,0,0,0,0.04
2013-11-30,45.3,33.9,24.4,30.8,24.8,-4.7,81,70,55,30.50,30.02,14,1,14,0.00
2013-12-1,37.7,35.6,32.1,31.6,28.8,-7.4,84,77,68,30.04,29.97,0,0,0,0.02
2013-12-2,40.8,32.6,25.5,28.0,24.8,-5.2,80,74,58,29.99,29.87,0,0,0,0.00
2013-12-3,32.7,29.2,22.2,29.5,24.7,-4.4,88,83,80,29.91,29.83,0,0,0,0.37
2013-12-4,53.9,41.2,32.5,50.2,37.6,-2.7,90,89,86,29.87,29.53,8,0,8,0.12
2013-12-5,55.7,40.2,27.6,50.9,30.3,-12.3,88,70,54,30.10,29.52,20,4,20,0.00
2013-12-6,27.5,22.6,18.1,17.3,12.1,-9.3,68,64,59,30.36,30.09,5,0,5,0.00
2013-12-7,25.3,18.8,12.5,9.7,6.9,-10.6,67,59,48,30.57,30.36,8,0,8,0.00
2013-12-8,25.1,18.1,11.1,20.1,10.0,-8.3,81,71,60,30.55,29.96,0,0,0,0.00
2013-12-9,28.7,24.5,14.7,24.5,18.6,-4.2,88,78,62,30.04,29.80,15,1,15,0.00
2013-12-10,21.0,13.4,4.2,12.9,4.9,-9.3,79,70,52,30.11,29.85,17,1,17,0.00
2013-12-11,21.3,13.9,5.1,10.6,4.7,-6.6,80,67,51,30.38,30.11,11,0,11,0.00
2013-12-12,18.3,12.0,4.2,13.5,5.4,-7.4,81,75,66,30.39,30.08,10,0,10,0.00
2013-12-13,24.9,20.8,15.4,16.8,14.3,-5.2,81,76,69,30.30,30.06,0,0,0,0.00
2013-12-14,20.8,18.4,14.7,16.7,13.7,-4.9,84,82,78,30.29,29.82,0,0,0,0.00
2013-12-15,22.4,17.5,11.3,17.1,11.5,-3.9,85,78,67,29.95,29.74,8,0,8,0.00
2013-12-16,26.6,13.1,4.6,12.7,4.9,-6.9,79,70,53,30.16,29.95,0,0,0,0.02
2013-12-17,28.2,21.7,14.5,23.7,16.4,-7.2,85,81,71,30.00,29.78,0,0,0,0.00
2013-12-18,27.6,24.9,22.4,21.1,17.3,-4.9,84,74,62,30.05,29.80,0,0,0,0.00
2013-12-19,36.1,28.2,22.6,29.0,21.2,-8.3,85,75,67,29.99,29.76,0,0,0,0.06
2013-12-20,32.3,31.0,28.9,29.4,27.5,-3.4,89,88,85,29.91,29.73,1,0,1,0.02
2013-12-21,31.2,29.6,28.0,28.3,26.3,-2.5,89,88,87,29.89,29.71,0,0,0,0.00
2013-12-22,31.4,28.4,22.2,28.3,24.9,-2.5,89,87,83,29.97,29.60,0,0,0,0.02
2013-12-23,26.2,21.6,15.2,18.4,17.0,9.7,88,82,72,30.27,29.96,0,0,0,0.00
2013-12-24,20.8,10.6,5.5,10.5,4.5,-4.9,80,76,63,30.48,30.26,0,0,0,0.00
2013-12-25,22.8,17.7,6.9,19.2,13.0,-4.4,86,82,79,30.44,30.02,0,0,0,0.00
2013-12-26,24.0,22.9,20.4,20.7,17.9,-3.2,87,81,70,30.20,29.96,0,0,0,0.00
2013-12-27,36.3,27.8,23.7,30.1,23.2,-3.7,86,83,77,30.26,29.93,0,0,0,0.00
2013-12-28,44.2,36.2,29.3,33.6,29.9,-5.5,88,78,65,30.04,29.80,0,0,0,0.22
2013-12-29,39.3,30.7,16.5,31.0,23.2,7.5,84,74,67,30.00,29.69,0,0,0,0.00
2013-12-30,17.4,14.9,12.3,8.1,4.5,1.7,69,63,53,30.24,30.00,0,0,0,0.00
2013-12-31,16.1,13.3,10.0,9.0,5.4,-5.8,79,71,61,30.30,30.01,0,0,0,0.00
2014-1-1,13.8,10.9,4.4,7.7,2.6,-7.4,76,69,61,30.39,30.27,0,0,0,0.00
2014-1-2,13.2,9.7,0.3,7.3,2.5,-7.2,78,72,66,30.28,30.15,0,0,0,0.00